sensor_id;sensor_type;location;lat;lon;timestamp;temperature;humidity
62476;DHT22;50739;45.670;11.936;2024-03-22T00:04:52;11.69;91.83
62476;DHT22;50739;45.670;11.936;2024-03-22T00:09:55;11.62;91.67
62476;DHT22;50739;45.670;11.936;2024-03-22T00:14:57;11.58;92.18
62476;DHT22;50739;45.670;11.936;2024-03-22T00:20:01;11.54;91.89
62476;DHT22;50739;45.670;11.936;2024-03-22T00:25:04;11.57;91.96
62476;DHT22;50739;45.670;11.936;2024-03-22T00:30:07;11.58;91.81
62476;DHT22;50739;45.670;11.936;2024-03-22T00:35:11;11.50;91.48
62476;DHT22;50739;45.670;11.936;2024-03-22T00:40:13;11.17;92.53
62476;DHT22;50739;45.670;11.936;2024-03-22T00:45:15;11.10;92.75
62476;DHT22;50739;45.670;11.936;2024-03-22T00:50:19;11.20;92.77
62476;DHT22;50739;45.670;11.936;2024-03-22T00:55:21;11.09;92.47
62476;DHT22;50739;45.670;11.936;2024-03-22T01:00:24;11.20;92.16
62476;DHT22;50739;45.670;11.936;2024-03-22T01:05:27;11.19;91.79
62476;DHT22;50739;45.670;11.936;2024-03-22T01:10:29;11.19;91.91
62476;DHT22;50739;45.670;11.936;2024-03-22T01:15:32;11.11;91.80
62476;DHT22;50739;45.670;11.936;2024-03-22T01:20:35;11.10;91.67
62476;DHT22;50739;45.670;11.936;2024-03-22T01:25:37;10.92;92.06
62476;DHT22;50739;45.670;11.936;2024-03-22T01:30:39;10.88;92.13
62476;DHT22;50739;45.670;11.936;2024-03-22T01:35:43;10.97;91.65
62476;DHT22;50739;45.670;11.936;2024-03-22T01:40:45;10.93;91.49
62476;DHT22;50739;45.670;11.936;2024-03-22T01:45:47;10.86;90.80
62476;DHT22;50739;45.670;11.936;2024-03-22T01:50:51;10.76;91.18
62476;DHT22;50739;45.670;11.936;2024-03-22T01:55:54;10.86;90.89
62476;DHT22;50739;45.670;11.936;2024-03-22T02:00:56;10.82;90.76
62476;DHT22;50739;45.670;11.936;2024-03-22T02:06:00;10.82;90.94
62476;DHT22;50739;45.670;11.936;2024-03-22T02:11:02;10.73;91.28
62476;DHT22;50739;45.670;11.936;2024-03-22T02:16:05;10.71;91.20
62476;DHT22;50739;45.670;11.936;2024-03-22T02:21:09;10.68;91.28
62476;DHT22;50739;45.670;11.936;2024-03-22T02:26:12;10.75;91.30
62476;DHT22;50739;45.670;11.936;2024-03-22T02:31:14;10.66;91.15
62476;DHT22;50739;45.670;11.936;2024-03-22T02:36:17;10.73;90.90
62476;DHT22;50739;45.670;11.936;2024-03-22T02:41:21;10.69;90.76
62476;DHT22;50739;45.670;11.936;2024-03-22T02:46:23;10.65;90.90
62476;DHT22;50739;45.670;11.936;2024-03-22T02:51:25;10.58;91.20
62476;DHT22;50739;45.670;11.936;2024-03-22T02:56:29;10.75;90.16
62476;DHT22;50739;45.670;11.936;2024-03-22T03:01:31;10.54;90.33
62476;DHT22;50739;45.670;11.936;2024-03-22T03:06:33;10.34;90.99
62476;DHT22;50739;45.670;11.936;2024-03-22T03:11:36;10.34;91.62
62476;DHT22;50739;45.670;11.936;2024-03-22T03:16:39;10.38;91.14
62476;DHT22;50739;45.670;11.936;2024-03-22T03:21:41;10.37;90.86
62476;DHT22;50739;45.670;11.936;2024-03-22T03:26:44;10.22;91.22
62476;DHT22;50739;45.670;11.936;2024-03-22T03:31:47;10.22;91.41
62476;DHT22;50739;45.670;11.936;2024-03-22T03:36:49;10.25;91.11
62476;DHT22;50739;45.670;11.936;2024-03-22T03:41:53;10.35;90.79
62476;DHT22;50739;45.670;11.936;2024-03-22T03:46:55;10.48;89.94
62476;DHT22;50739;45.670;11.936;2024-03-22T03:51:57;10.40;89.24
62476;DHT22;50739;45.670;11.936;2024-03-22T03:57:00;10.14;90.36
62476;DHT22;50739;45.670;11.936;2024-03-22T04:02:03;10.20;90.04
62476;DHT22;50739;45.670;11.936;2024-03-22T04:07:05;10.21;89.46
62476;DHT22;50739;45.670;11.936;2024-03-22T04:12:09;10.07;89.97
62476;DHT22;50739;45.670;11.936;2024-03-22T04:17:11;10.11;89.44
62476;DHT22;50739;45.670;11.936;2024-03-22T04:22:13;10.16;88.89
62476;DHT22;50739;45.670;11.936;2024-03-22T04:27:16;10.17;89.39
62476;DHT22;50739;45.670;11.936;2024-03-22T04:32:19;10.16;88.90
62476;DHT22;50739;45.670;11.936;2024-03-22T04:37:21;10.20;88.81
62476;DHT22;50739;45.670;11.936;2024-03-22T04:42:24;10.09;88.71
62476;DHT22;50739;45.670;11.936;2024-03-22T04:47:26;10.13;88.54
62476;DHT22;50739;45.670;11.936;2024-03-22T04:52:29;10.20;88.20
62476;DHT22;50739;45.670;11.936;2024-03-22T04:57:32;10.18;88.77
62476;DHT22;50739;45.670;11.936;2024-03-22T05:02:34;10.21;88.47
62476;DHT22;50739;45.670;11.936;2024-03-22T05:07:37;10.28;87.22
62476;DHT22;50739;45.670;11.936;2024-03-22T05:12:40;10.06;88.24
62476;DHT22;50739;45.670;11.936;2024-03-22T05:17:42;9.93;88.65
62476;DHT22;50739;45.670;11.936;2024-03-22T05:22:45;9.94;88.47
62476;DHT22;50739;45.670;11.936;2024-03-22T05:27:48;9.90;88.83
62476;DHT22;50739;45.670;11.936;2024-03-22T05:32:51;10.03;88.46
62476;DHT22;50739;45.670;11.936;2024-03-22T05:37:53;9.93;88.79
62476;DHT22;50739;45.670;11.936;2024-03-22T05:42:56;9.91;88.64
62476;DHT22;50739;45.670;11.936;2024-03-22T05:47:58;9.91;88.76
62476;DHT22;50739;45.670;11.936;2024-03-22T05:53:01;10.09;88.72
62476;DHT22;50739;45.670;11.936;2024-03-22T05:58:04;10.14;88.56
62476;DHT22;50739;45.670;11.936;2024-03-22T06:03:06;10.22;88.72
62476;DHT22;50739;45.670;11.936;2024-03-22T06:08:09;10.34;88.05
62476;DHT22;50739;45.670;11.936;2024-03-22T06:13:12;10.41;88.31
62476;DHT22;50739;45.670;11.936;2024-03-22T06:18:15;10.48;88.10
62476;DHT22;50739;45.670;11.936;2024-03-22T06:23:17;10.64;87.92
62476;DHT22;50739;45.670;11.936;2024-03-22T06:28:21;10.80;86.96
62476;DHT22;50739;45.670;11.936;2024-03-22T06:33:23;10.93;87.04
62476;DHT22;50739;45.670;11.936;2024-03-22T06:38:25;11.20;86.55
62476;DHT22;50739;45.670;11.936;2024-03-22T06:43:29;11.41;86.00
62476;DHT22;50739;45.670;11.936;2024-03-22T06:48:31;11.55;85.77
62476;DHT22;50739;45.670;11.936;2024-03-22T06:53:33;11.68;85.58
62476;DHT22;50739;45.670;11.936;2024-03-22T06:58:37;11.76;85.86
62476;DHT22;50739;45.670;11.936;2024-03-22T07:03:39;11.90;85.90
62476;DHT22;50739;45.670;11.936;2024-03-22T07:08:41;12.00;85.94
62476;DHT22;50739;45.670;11.936;2024-03-22T07:13:44;12.17;85.78
62476;DHT22;50739;45.670;11.936;2024-03-22T07:18:46;12.36;85.77
62476;DHT22;50739;45.670;11.936;2024-03-22T07:23:50;12.58;85.59
62476;DHT22;50739;45.670;11.936;2024-03-22T07:28:54;12.78;85.10
62476;DHT22;50739;45.670;11.936;2024-03-22T07:33:56;13.03;84.43
62476;DHT22;50739;45.670;11.936;2024-03-22T07:38:58;13.22;81.34
62476;DHT22;50739;45.670;11.936;2024-03-22T07:44:02;13.51;80.81
62476;DHT22;50739;45.670;11.936;2024-03-22T07:49:05;13.97;78.40
62476;DHT22;50739;45.670;11.936;2024-03-22T07:54:08;14.13;76.12
62476;DHT22;50739;45.670;11.936;2024-03-22T07:59:11;14.37;73.49
62476;DHT22;50739;45.670;11.936;2024-03-22T08:04:13;14.48;74.36
62476;DHT22;50739;45.670;11.936;2024-03-22T08:09:15;14.63;76.50
62476;DHT22;50739;45.670;11.936;2024-03-22T08:14:20;14.74;78.70
62476;DHT22;50739;45.670;11.936;2024-03-22T08:19:22;14.75;80.07
62476;DHT22;50739;45.670;11.936;2024-03-22T08:24:25;14.81;79.45
62476;DHT22;50739;45.670;11.936;2024-03-22T08:29:28;15.09;78.18
62476;DHT22;50739;45.670;11.936;2024-03-22T08:34:30;15.26;78.17
62476;DHT22;50739;45.670;11.936;2024-03-22T08:39:33;15.44;77.63
62476;DHT22;50739;45.670;11.936;2024-03-22T08:44:36;15.56;77.68
62476;DHT22;50739;45.670;11.936;2024-03-22T08:49:39;15.77;77.09
62476;DHT22;50739;45.670;11.936;2024-03-22T08:54:42;15.88;75.48
62476;DHT22;50739;45.670;11.936;2024-03-22T08:59:46;16.06;73.36
62476;DHT22;50739;45.670;11.936;2024-03-22T09:04:48;16.26;75.15
62476;DHT22;50739;45.670;11.936;2024-03-22T09:09:50;16.28;75.23
62476;DHT22;50739;45.670;11.936;2024-03-22T09:14:54;16.57;73.00
62476;DHT22;50739;45.670;11.936;2024-03-22T09:19:56;16.76;70.83
62476;DHT22;50739;45.670;11.936;2024-03-22T09:24:59;16.73;72.59
62476;DHT22;50739;45.670;11.936;2024-03-22T09:30:03;17.00;70.35
62476;DHT22;50739;45.670;11.936;2024-03-22T09:35:06;17.18;67.51
62476;DHT22;50739;45.670;11.936;2024-03-22T09:40:09;17.45;67.21
62476;DHT22;50739;45.670;11.936;2024-03-22T09:45:13;17.46;67.17
62476;DHT22;50739;45.670;11.936;2024-03-22T09:50:19;17.49;64.23
62476;DHT22;50739;45.670;11.936;2024-03-22T09:55:22;17.57;67.18
62476;DHT22;50739;45.670;11.936;2024-03-22T10:00:26;17.77;60.94
62476;DHT22;50739;45.670;11.936;2024-03-22T10:05:28;17.91;59.73
62476;DHT22;50739;45.670;11.936;2024-03-22T10:10:31;18.17;58.67
62476;DHT22;50739;45.670;11.936;2024-03-22T10:15:34;18.27;56.71
62476;DHT22;50739;45.670;11.936;2024-03-22T10:20:36;18.21;60.97
62476;DHT22;50739;45.670;11.936;2024-03-22T10:25:39;18.21;60.69
62476;DHT22;50739;45.670;11.936;2024-03-22T10:30:43;18.48;59.75
62476;DHT22;50739;45.670;11.936;2024-03-22T10:35:46;18.51;60.00
62476;DHT22;50739;45.670;11.936;2024-03-22T10:40:49;18.58;59.12
62476;DHT22;50739;45.670;11.936;2024-03-22T10:45:56;18.63;58.77
62476;DHT22;50739;45.670;11.936;2024-03-22T10:51:01;18.82;56.79
62476;DHT22;50739;45.670;11.936;2024-03-22T10:56:04;18.82;60.04
62476;DHT22;50739;45.670;11.936;2024-03-22T11:01:21;19.17;58.09
62476;DHT22;50739;45.670;11.936;2024-03-22T11:06:23;19.15;57.66
62476;DHT22;50739;45.670;11.936;2024-03-22T11:11:28;19.04;58.57
62476;DHT22;50739;45.670;11.936;2024-03-22T11:16:35;19.21;56.64
62476;DHT22;50739;45.670;11.936;2024-03-22T11:21:38;19.24;56.36
62476;DHT22;50739;45.670;11.936;2024-03-22T11:26:40;19.45;54.13
62476;DHT22;50739;45.670;11.936;2024-03-22T11:31:43;19.47;54.71
62476;DHT22;50739;45.670;11.936;2024-03-22T11:36:46;19.63;54.68
62476;DHT22;50739;45.670;11.936;2024-03-22T11:41:50;19.58;55.79
62476;DHT22;50739;45.670;11.936;2024-03-22T11:46:54;19.70;53.93
62476;DHT22;50739;45.670;11.936;2024-03-22T11:51:57;19.68;55.80
62476;DHT22;50739;45.670;11.936;2024-03-22T11:56:59;20.06;56.28
62476;DHT22;50739;45.670;11.936;2024-03-22T12:02:05;20.27;55.62
62476;DHT22;50739;45.670;11.936;2024-03-22T12:07:10;20.27;56.54
62476;DHT22;50739;45.670;11.936;2024-03-22T12:12:13;20.30;51.98
62476;DHT22;50739;45.670;11.936;2024-03-22T12:17:16;20.21;54.26
62476;DHT22;50739;45.670;11.936;2024-03-22T12:22:18;20.41;55.00
62476;DHT22;50739;45.670;11.936;2024-03-22T12:27:21;20.58;53.61
62476;DHT22;50739;45.670;11.936;2024-03-22T12:32:25;20.59;54.37
62476;DHT22;50739;45.670;11.936;2024-03-22T12:37:27;20.82;52.71
62476;DHT22;50739;45.670;11.936;2024-03-22T12:42:29;21.02;49.82
62476;DHT22;50739;45.670;11.936;2024-03-22T12:47:33;21.19;49.14
62476;DHT22;50739;45.670;11.936;2024-03-22T12:52:35;21.50;46.69
62476;DHT22;50739;45.670;11.936;2024-03-22T12:57:37;21.68;46.50
62476;DHT22;50739;45.670;11.936;2024-03-22T13:02:41;21.72;46.93
62476;DHT22;50739;45.670;11.936;2024-03-22T13:07:43;22.20;46.03
62476;DHT22;50739;45.670;11.936;2024-03-22T13:12:45;22.44;44.30
62476;DHT22;50739;45.670;11.936;2024-03-22T13:17:49;22.41;43.99
62476;DHT22;50739;45.670;11.936;2024-03-22T13:22:53;22.79;43.55
62476;DHT22;50739;45.670;11.936;2024-03-22T13:27:55;22.98;42.75
62476;DHT22;50739;45.670;11.936;2024-03-22T13:32:58;23.33;43.17
62476;DHT22;50739;45.670;11.936;2024-03-22T13:38:01;23.46;41.12
62476;DHT22;50739;45.670;11.936;2024-03-22T13:43:03;24.14;41.22
62476;DHT22;50739;45.670;11.936;2024-03-22T13:48:10;24.19;40.18
62476;DHT22;50739;45.670;11.936;2024-03-22T13:53:13;24.59;42.17
62476;DHT22;50739;45.670;11.936;2024-03-22T13:58:16;24.69;40.48
62476;DHT22;50739;45.670;11.936;2024-03-22T14:03:20;24.25;41.63
62476;DHT22;50739;45.670;11.936;2024-03-22T14:08:22;24.05;43.67
62476;DHT22;50739;45.670;11.936;2024-03-22T14:13:25;23.93;44.82
62476;DHT22;50739;45.670;11.936;2024-03-22T14:18:28;24.26;44.69
62476;DHT22;50739;45.670;11.936;2024-03-22T14:23:32;24.35;43.83
62476;DHT22;50739;45.670;11.936;2024-03-22T14:28:35;24.69;44.27
62476;DHT22;50739;45.670;11.936;2024-03-22T14:33:39;24.98;43.44
62476;DHT22;50739;45.670;11.936;2024-03-22T14:38:42;24.95;43.82
62476;DHT22;50739;45.670;11.936;2024-03-22T14:43:44;24.87;43.45
62476;DHT22;50739;45.670;11.936;2024-03-22T14:48:47;25.17;43.58
62476;DHT22;50739;45.670;11.936;2024-03-22T14:53:49;24.52;44.45
62476;DHT22;50739;45.670;11.936;2024-03-22T14:58:52;24.12;46.17
62476;DHT22;50739;45.670;11.936;2024-03-22T15:03:55;23.89;45.37
62476;DHT22;50739;45.670;11.936;2024-03-22T15:08:57;23.75;46.10
62476;DHT22;50739;45.670;11.936;2024-03-22T15:14:03;23.75;45.38
62476;DHT22;50739;45.670;11.936;2024-03-22T15:19:06;23.57;46.78
62476;DHT22;50739;45.670;11.936;2024-03-22T15:24:08;23.36;46.28
62476;DHT22;50739;45.670;11.936;2024-03-22T15:29:11;23.42;46.99
62476;DHT22;50739;45.670;11.936;2024-03-22T15:34:14;23.34;47.79
62476;DHT22;50739;45.670;11.936;2024-03-22T15:39:16;23.23;47.38
62476;DHT22;50739;45.670;11.936;2024-03-22T15:44:20;23.15;46.66
62476;DHT22;50739;45.670;11.936;2024-03-22T15:49:23;23.12;46.68
62476;DHT22;50739;45.670;11.936;2024-03-22T15:54:25;23.38;47.47
62476;DHT22;50739;45.670;11.936;2024-03-22T15:59:28;23.20;46.93
62476;DHT22;50739;45.670;11.936;2024-03-22T16:04:31;22.79;48.00
62476;DHT22;50739;45.670;11.936;2024-03-22T16:09:35;22.83;48.37
62476;DHT22;50739;45.670;11.936;2024-03-22T16:14:37;22.32;49.92
62476;DHT22;50739;45.670;11.936;2024-03-22T16:19:41;22.36;49.75
62476;DHT22;50739;45.670;11.936;2024-03-22T16:24:44;22.17;50.59
62476;DHT22;50739;45.670;11.936;2024-03-22T16:29:46;21.47;52.41
62476;DHT22;50739;45.670;11.936;2024-03-22T16:34:49;21.10;53.24
62476;DHT22;50739;45.670;11.936;2024-03-22T16:39:52;20.83;54.21
62476;DHT22;50739;45.670;11.936;2024-03-22T16:44:54;20.58;54.69
62476;DHT22;50739;45.670;11.936;2024-03-22T16:49:57;20.31;55.65
62476;DHT22;50739;45.670;11.936;2024-03-22T16:55:00;20.18;55.25
62476;DHT22;50739;45.670;11.936;2024-03-22T17:00:09;20.00;55.32
62476;DHT22;50739;45.670;11.936;2024-03-22T17:05:12;19.79;56.24
62476;DHT22;50739;45.670;11.936;2024-03-22T17:10:15;19.82;55.93
62476;DHT22;50739;45.670;11.936;2024-03-22T17:15:17;19.42;57.39
62476;DHT22;50739;45.670;11.936;2024-03-22T17:20:21;19.36;57.03
62476;DHT22;50739;45.670;11.936;2024-03-22T17:25:23;19.21;58.00
62476;DHT22;50739;45.670;11.936;2024-03-22T17:30:26;19.03;58.10
62476;DHT22;50739;45.670;11.936;2024-03-22T17:35:29;19.00;57.74
62476;DHT22;50739;45.670;11.936;2024-03-22T17:40:32;18.99;57.85
62476;DHT22;50739;45.670;11.936;2024-03-22T17:45:35;18.76;58.85
62476;DHT22;50739;45.670;11.936;2024-03-22T17:50:39;18.53;60.01
62476;DHT22;50739;45.670;11.936;2024-03-22T17:55:41;18.51;59.89
62476;DHT22;50739;45.670;11.936;2024-03-22T18:00:43;18.32;60.33
62476;DHT22;50739;45.670;11.936;2024-03-22T18:05:47;18.25;61.28
62476;DHT22;50739;45.670;11.936;2024-03-22T18:10:49;18.21;60.56
62476;DHT22;50739;45.670;11.936;2024-03-22T18:15:51;18.17;60.80
62476;DHT22;50739;45.670;11.936;2024-03-22T18:20:54;18.01;61.21
62476;DHT22;50739;45.670;11.936;2024-03-22T18:25:57;18.11;61.11
62476;DHT22;50739;45.670;11.936;2024-03-22T18:31:00;17.93;61.75
62476;DHT22;50739;45.670;11.936;2024-03-22T18:36:04;17.83;61.97
62476;DHT22;50739;45.670;11.936;2024-03-22T18:41:06;17.50;64.99
62476;DHT22;50739;45.670;11.936;2024-03-22T18:46:08;17.36;66.58
62476;DHT22;50739;45.670;11.936;2024-03-22T18:51:12;17.19;67.04
62476;DHT22;50739;45.670;11.936;2024-03-22T18:56:15;17.08;68.12
62476;DHT22;50739;45.670;11.936;2024-03-22T20:36:01;15.21;76.62
